UATG/GUW METAR and TAF weather

Enter ICAO airport designator
Station Type Date Time Source
UATG METAR 2021/09/28 15:30 UTC NOAA

UATG 281530Z 01005MPS CAVOK 10/01 Q1018 R32/CLRD70 NOSIG RMK QFE766/1021


Station Type Date Time Source
UATG Decoded METAR 2021/09/28 15:30 UTC NOAA

Station name not available
Sep 28, 2021 - 11:30 AM EDT / 2021.09.28 1530 UTC
Wind: from the N (010 degrees) at 11 MPH (10 KT):0
Visibility: greater than 7 mile(s):0
Temperature: 50 F (10 C)
Dew Point: 33 F (1 C)
Relative Humidity: 53%
Pressure (altimeter): 30.06 in. Hg (1018 hPa)
ob: UATG 281530Z 01005MPS CAVOK 10/01 Q1018 R32/CLRD70 NOSIG RMK QFE766/1021
cycle: 15

Station Type Date Time Source
UATG TAF 2021/09/28 12:21 UTC NOAA

TAF UATG 281102Z 2812/2912 32008MPS 9999 BKN020CB TX12/2911Z TN04/2902Z
BECMG 2815/2817 34005MPS
TEMPO 2820/2904 3100 BR BKN011

Example: see airport list